sensor_id;sensor_type;location;lat;lon;timestamp;P1;durP1;ratioP1;P2;durP2;ratioP2
53881;SDS011;39794;55.782;37.452;2022-07-29T00:00:49;2.10;;;1.10;;
53881;SDS011;39794;55.782;37.452;2022-07-29T00:03:21;2.13;;;1.30;;
53881;SDS011;39794;55.782;37.452;2022-07-29T00:05:51;2.03;;;1.33;;
53881;SDS011;39794;55.782;37.452;2022-07-29T00:08:20;5.10;;;1.50;;
53881;SDS011;39794;55.782;37.452;2022-07-29T00:10:51;3.42;;;1.55;;
53881;SDS011;39794;55.782;37.452;2022-07-29T00:13:19;2.50;;;1.20;;
53881;SDS011;39794;55.782;37.452;2022-07-29T00:15:58;2.60;;;1.50;;
53881;SDS011;39794;55.782;37.452;2022-07-29T00:18:35;3.38;;;1.35;;
53881;SDS011;39794;55.782;37.452;2022-07-29T00:21:05;2.78;;;1.30;;
53881;SDS011;39794;55.782;37.452;2022-07-29T00:23:34;2.47;;;1.30;;
53881;SDS011;39794;55.782;37.452;2022-07-29T00:26:03;3.45;;;1.35;;
53881;SDS011;39794;55.782;37.452;2022-07-29T00:28:31;2.97;;;1.40;;
53881;SDS011;39794;55.782;37.452;2022-07-29T00:31:02;2.38;;;1.50;;
53881;SDS011;39794;55.782;37.452;2022-07-29T00:33:31;3.95;;;1.42;;
53881;SDS011;39794;55.782;37.452;2022-07-29T00:36:00;1.42;;;1.33;;
53881;SDS011;39794;55.782;37.452;2022-07-29T00:38:29;4.63;;;1.85;;
53881;SDS011;39794;55.782;37.452;2022-07-29T00:40:58;3.58;;;1.35;;
53881;SDS011;39794;55.782;37.452;2022-07-29T00:43:27;5.95;;;1.80;;
53881;SDS011;39794;55.782;37.452;2022-07-29T00:45:56;1.80;;;1.23;;
53881;SDS011;39794;55.782;37.452;2022-07-29T00:48:25;2.70;;;1.40;;
53881;SDS011;39794;55.782;37.452;2022-07-29T00:50:54;2.50;;;1.38;;
53881;SDS011;39794;55.782;37.452;2022-07-29T00:53:25;3.50;;;1.23;;
53881;SDS011;39794;55.782;37.452;2022-07-29T00:55:56;2.95;;;1.40;;
53881;SDS011;39794;55.782;37.452;2022-07-29T00:58:25;4.65;;;1.30;;
53881;SDS011;39794;55.782;37.452;2022-07-29T01:00:57;2.10;;;1.40;;
53881;SDS011;39794;55.782;37.452;2022-07-29T01:03:26;3.15;;;1.52;;
53881;SDS011;39794;55.782;37.452;2022-07-29T01:05:55;5.45;;;1.40;;
53881;SDS011;39794;55.782;37.452;2022-07-29T01:08:24;4.13;;;1.30;;
53881;SDS011;39794;55.782;37.452;2022-07-29T01:10:53;1.55;;;1.40;;
53881;SDS011;39794;55.782;37.452;2022-07-29T01:13:26;4.35;;;1.30;;
53881;SDS011;39794;55.782;37.452;2022-07-29T01:15:56;2.47;;;1.45;;
53881;SDS011;39794;55.782;37.452;2022-07-29T01:18:28;2.28;;;1.35;;
53881;SDS011;39794;55.782;37.452;2022-07-29T01:24:00;3.65;;;1.52;;
53881;SDS011;39794;55.782;37.452;2022-07-29T01:27:07;4.68;;;1.70;;
53881;SDS011;39794;55.782;37.452;2022-07-29T01:32:23;2.17;;;1.67;;
53881;SDS011;39794;55.782;37.452;2022-07-29T01:34:56;5.70;;;2.00;;
53881;SDS011;39794;55.782;37.452;2022-07-29T01:37:29;3.75;;;2.22;;
53881;SDS011;39794;55.782;37.452;2022-07-29T01:40:07;2.50;;;1.70;;
53881;SDS011;39794;55.782;37.452;2022-07-29T01:42:41;3.92;;;1.70;;
53881;SDS011;39794;55.782;37.452;2022-07-29T01:45:14;7.07;;;2.20;;
53881;SDS011;39794;55.782;37.452;2022-07-29T01:47:46;3.90;;;2.58;;
53881;SDS011;39794;55.782;37.452;2022-07-29T01:50:18;6.25;;;3.00;;
53881;SDS011;39794;55.782;37.452;2022-07-29T01:52:52;3.28;;;2.70;;
53881;SDS011;39794;55.782;37.452;2022-07-29T01:55:27;4.38;;;2.53;;
53881;SDS011;39794;55.782;37.452;2022-07-29T01:57:58;5.05;;;2.70;;
53881;SDS011;39794;55.782;37.452;2022-07-29T02:03:48;3.78;;;1.95;;
53881;SDS011;39794;55.782;37.452;2022-07-29T02:06:20;3.88;;;2.15;;
53881;SDS011;39794;55.782;37.452;2022-07-29T02:08:51;3.17;;;1.90;;
53881;SDS011;39794;55.782;37.452;2022-07-29T02:11:23;3.22;;;2.10;;
53881;SDS011;39794;55.782;37.452;2022-07-29T02:13:52;3.47;;;1.98;;
53881;SDS011;39794;55.782;37.452;2022-07-29T02:16:22;3.65;;;2.05;;
53881;SDS011;39794;55.782;37.452;2022-07-29T02:18:54;6.45;;;2.05;;
53881;SDS011;39794;55.782;37.452;2022-07-29T02:21:24;3.10;;;1.60;;
53881;SDS011;39794;55.782;37.452;2022-07-29T02:23:55;4.43;;;1.90;;
53881;SDS011;39794;55.782;37.452;2022-07-29T02:26:24;2.75;;;1.60;;
53881;SDS011;39794;55.782;37.452;2022-07-29T02:28:55;1.70;;;1.45;;
53881;SDS011;39794;55.782;37.452;2022-07-29T02:31:28;5.95;;;1.80;;
53881;SDS011;39794;55.782;37.452;2022-07-29T02:34:00;2.27;;;1.50;;
53881;SDS011;39794;55.782;37.452;2022-07-29T02:36:30;7.13;;;2.40;;
53881;SDS011;39794;55.782;37.452;2022-07-29T02:39:01;4.80;;;1.83;;
53881;SDS011;39794;55.782;37.452;2022-07-29T02:41:33;6.63;;;1.60;;
53881;SDS011;39794;55.782;37.452;2022-07-29T02:44:06;3.35;;;1.30;;
53881;SDS011;39794;55.782;37.452;2022-07-29T02:47:09;2.53;;;1.60;;
53881;SDS011;39794;55.782;37.452;2022-07-29T02:49:46;2.75;;;1.50;;
53881;SDS011;39794;55.782;37.452;2022-07-29T02:52:29;3.88;;;1.67;;
53881;SDS011;39794;55.782;37.452;2022-07-29T02:55:01;2.78;;;1.60;;
53881;SDS011;39794;55.782;37.452;2022-07-29T02:57:33;5.70;;;1.92;;
53881;SDS011;39794;55.782;37.452;2022-07-29T03:00:21;3.30;;;1.85;;
53881;SDS011;39794;55.782;37.452;2022-07-29T03:02:53;4.53;;;1.80;;
53881;SDS011;39794;55.782;37.452;2022-07-29T03:05:27;4.07;;;1.50;;
53881;SDS011;39794;55.782;37.452;2022-07-29T03:08:00;3.53;;;1.92;;
53881;SDS011;39794;55.782;37.452;2022-07-29T03:10:29;3.35;;;2.00;;
53881;SDS011;39794;55.782;37.452;2022-07-29T03:12:58;4.13;;;1.77;;
53881;SDS011;39794;55.782;37.452;2022-07-29T03:15:28;3.33;;;2.03;;
53881;SDS011;39794;55.782;37.452;2022-07-29T03:17:57;2.58;;;1.70;;
53881;SDS011;39794;55.782;37.452;2022-07-29T03:20:28;5.45;;;1.90;;
53881;SDS011;39794;55.782;37.452;2022-07-29T03:23:00;3.67;;;1.83;;
53881;SDS011;39794;55.782;37.452;2022-07-29T03:25:29;4.60;;;1.90;;
53881;SDS011;39794;55.782;37.452;2022-07-29T03:27:58;6.70;;;1.60;;
53881;SDS011;39794;55.782;37.452;2022-07-29T03:30:27;3.92;;;1.60;;
53881;SDS011;39794;55.782;37.452;2022-07-29T03:33:00;4.25;;;1.50;;
53881;SDS011;39794;55.782;37.452;2022-07-29T03:35:40;3.28;;;1.40;;
53881;SDS011;39794;55.782;37.452;2022-07-29T03:38:09;5.10;;;1.40;;
53881;SDS011;39794;55.782;37.452;2022-07-29T03:40:40;3.03;;;1.42;;
53881;SDS011;39794;55.782;37.452;2022-07-29T03:43:17;1.88;;;1.40;;
53881;SDS011;39794;55.782;37.452;2022-07-29T03:45:49;2.85;;;1.40;;
53881;SDS011;39794;55.782;37.452;2022-07-29T03:48:19;3.42;;;1.65;;
53881;SDS011;39794;55.782;37.452;2022-07-29T03:50:52;5.63;;;1.90;;
53881;SDS011;39794;55.782;37.452;2022-07-29T03:53:20;3.15;;;1.52;;
53881;SDS011;39794;55.782;37.452;2022-07-29T03:55:52;3.83;;;1.58;;
53881;SDS011;39794;55.782;37.452;2022-07-29T03:58:23;3.33;;;1.65;;
53881;SDS011;39794;55.782;37.452;2022-07-29T04:00:54;4.78;;;1.75;;
53881;SDS011;39794;55.782;37.452;2022-07-29T04:03:24;6.45;;;1.85;;
53881;SDS011;39794;55.782;37.452;2022-07-29T04:06:04;2.55;;;1.50;;
53881;SDS011;39794;55.782;37.452;2022-07-29T04:08:34;2.17;;;1.50;;
53881;SDS011;39794;55.782;37.452;2022-07-29T04:11:03;3.25;;;1.60;;
53881;SDS011;39794;55.782;37.452;2022-07-29T04:13:32;5.70;;;1.65;;
53881;SDS011;39794;55.782;37.452;2022-07-29T04:16:01;3.97;;;1.10;;
53881;SDS011;39794;55.782;37.452;2022-07-29T04:18:33;4.93;;;1.65;;
53881;SDS011;39794;55.782;37.452;2022-07-29T04:21:03;2.42;;;1.65;;
53881;SDS011;39794;55.782;37.452;2022-07-29T04:23:32;3.38;;;1.65;;
53881;SDS011;39794;55.782;37.452;2022-07-29T04:26:20;2.83;;;1.30;;
53881;SDS011;39794;55.782;37.452;2022-07-29T04:28:48;5.90;;;1.50;;
53881;SDS011;39794;55.782;37.452;2022-07-29T04:31:19;1.67;;;1.30;;
53881;SDS011;39794;55.782;37.452;2022-07-29T04:33:51;3.75;;;1.63;;
53881;SDS011;39794;55.782;37.452;2022-07-29T04:36:22;6.28;;;1.55;;
53881;SDS011;39794;55.782;37.452;2022-07-29T04:38:55;3.35;;;1.80;;
53881;SDS011;39794;55.782;37.452;2022-07-29T04:41:24;6.30;;;2.15;;
53881;SDS011;39794;55.782;37.452;2022-07-29T04:43:59;3.88;;;1.50;;
53881;SDS011;39794;55.782;37.452;2022-07-29T04:47:03;1.90;;;1.63;;
53881;SDS011;39794;55.782;37.452;2022-07-29T04:49:32;4.53;;;1.60;;
53881;SDS011;39794;55.782;37.452;2022-07-29T04:52:02;1.98;;;1.33;;
53881;SDS011;39794;55.782;37.452;2022-07-29T04:54:35;3.47;;;1.27;;
53881;SDS011;39794;55.782;37.452;2022-07-29T04:57:03;4.03;;;1.50;;
53881;SDS011;39794;55.782;37.452;2022-07-29T04:59:32;5.22;;;1.60;;
53881;SDS011;39794;55.782;37.452;2022-07-29T05:02:01;6.20;;;1.52;;
53881;SDS011;39794;55.782;37.452;2022-07-29T05:04:29;3.45;;;1.20;;
53881;SDS011;39794;55.782;37.452;2022-07-29T05:06:58;3.17;;;1.27;;
53881;SDS011;39794;55.782;37.452;2022-07-29T05:09:28;2.97;;;1.30;;
53881;SDS011;39794;55.782;37.452;2022-07-29T05:12:00;2.70;;;1.50;;
53881;SDS011;39794;55.782;37.452;2022-07-29T05:14:34;3.53;;;1.60;;
53881;SDS011;39794;55.782;37.452;2022-07-29T05:19:37;3.70;;;1.40;;
53881;SDS011;39794;55.782;37.452;2022-07-29T05:22:06;4.18;;;1.38;;
53881;SDS011;39794;55.782;37.452;2022-07-29T05:24:36;2.15;;;1.35;;
53881;SDS011;39794;55.782;37.452;2022-07-29T05:27:05;4.20;;;1.55;;
53881;SDS011;39794;55.782;37.452;2022-07-29T05:29:33;3.28;;;1.50;;
53881;SDS011;39794;55.782;37.452;2022-07-29T05:32:13;7.50;;;1.45;;
53881;SDS011;39794;55.782;37.452;2022-07-29T05:34:42;2.90;;;1.40;;
53881;SDS011;39794;55.782;37.452;2022-07-29T05:37:17;3.67;;;1.10;;
53881;SDS011;39794;55.782;37.452;2022-07-29T05:39:50;1.67;;;1.00;;
53881;SDS011;39794;55.782;37.452;2022-07-29T05:42:24;3.15;;;1.42;;
53881;SDS011;39794;55.782;37.452;2022-07-29T05:44:53;7.70;;;1.90;;
53881;SDS011;39794;55.782;37.452;2022-07-29T05:47:22;5.75;;;1.48;;
53881;SDS011;39794;55.782;37.452;2022-07-29T05:49:51;1.83;;;1.10;;
53881;SDS011;39794;55.782;37.452;2022-07-29T05:52:20;3.85;;;1.20;;
53881;SDS011;39794;55.782;37.452;2022-07-29T05:54:52;3.28;;;1.20;;
53881;SDS011;39794;55.782;37.452;2022-07-29T05:57:22;3.58;;;1.40;;
53881;SDS011;39794;55.782;37.452;2022-07-29T05:59:51;2.45;;;1.00;;
53881;SDS011;39794;55.782;37.452;2022-07-29T06:02:20;3.08;;;1.10;;
53881;SDS011;39794;55.782;37.452;2022-07-29T06:05:14;4.03;;;1.20;;
53881;SDS011;39794;55.782;37.452;2022-07-29T06:07:43;2.20;;;1.13;;
53881;SDS011;39794;55.782;37.452;2022-07-29T06:10:22;1.98;;;1.13;;
53881;SDS011;39794;55.782;37.452;2022-07-29T06:12:52;3.42;;;1.02;;
53881;SDS011;39794;55.782;37.452;2022-07-29T06:15:21;3.55;;;0.93;;
53881;SDS011;39794;55.782;37.452;2022-07-29T06:17:51;3.47;;;1.20;;
53881;SDS011;39794;55.782;37.452;2022-07-29T06:20:25;2.97;;;1.30;;
53881;SDS011;39794;55.782;37.452;2022-07-29T06:22:59;3.28;;;1.20;;
53881;SDS011;39794;55.782;37.452;2022-07-29T06:25:32;1.77;;;1.02;;
53881;SDS011;39794;55.782;37.452;2022-07-29T06:28:03;4.72;;;0.93;;
53881;SDS011;39794;55.782;37.452;2022-07-29T06:30:32;3.15;;;1.08;;
53881;SDS011;39794;55.782;37.452;2022-07-29T06:33:01;2.97;;;0.80;;
53881;SDS011;39794;55.782;37.452;2022-07-29T06:35:29;1.63;;;1.00;;
53881;SDS011;39794;55.782;37.452;2022-07-29T06:38:08;6.82;;;1.20;;
53881;SDS011;39794;55.782;37.452;2022-07-29T06:41:00;2.40;;;0.88;;
53881;SDS011;39794;55.782;37.452;2022-07-29T06:43:30;2.08;;;1.00;;
53881;SDS011;39794;55.782;37.452;2022-07-29T06:46:01;1.65;;;0.73;;
53881;SDS011;39794;55.782;37.452;2022-07-29T06:48:31;3.60;;;0.98;;
53881;SDS011;39794;55.782;37.452;2022-07-29T06:51:04;2.85;;;1.00;;
53881;SDS011;39794;55.782;37.452;2022-07-29T06:53:35;0.88;;;0.73;;
53881;SDS011;39794;55.782;37.452;2022-07-29T06:56:25;5.38;;;0.95;;
53881;SDS011;39794;55.782;37.452;2022-07-29T06:58:53;4.13;;;1.00;;
53881;SDS011;39794;55.782;37.452;2022-07-29T07:01:28;2.92;;;1.60;;
53881;SDS011;39794;55.782;37.452;2022-07-29T07:03:57;5.68;;;0.95;;
53881;SDS011;39794;55.782;37.452;2022-07-29T07:06:25;3.92;;;1.27;;
53881;SDS011;39794;55.782;37.452;2022-07-29T07:08:54;3.38;;;0.93;;
53881;SDS011;39794;55.782;37.452;2022-07-29T07:14:21;2.55;;;0.90;;
53881;SDS011;39794;55.782;37.452;2022-07-29T07:16:56;2.13;;;1.00;;
53881;SDS011;39794;55.782;37.452;2022-07-29T07:19:31;1.70;;;0.90;;
53881;SDS011;39794;55.782;37.452;2022-07-29T07:21:59;3.53;;;1.15;;
53881;SDS011;39794;55.782;37.452;2022-07-29T07:24:33;2.65;;;1.10;;
53881;SDS011;39794;55.782;37.452;2022-07-29T07:27:04;0.80;;;0.70;;
53881;SDS011;39794;55.782;37.452;2022-07-29T07:29:38;2.40;;;0.98;;
53881;SDS011;39794;55.782;37.452;2022-07-29T07:32:10;2.10;;;0.57;;
53881;SDS011;39794;55.782;37.452;2022-07-29T07:34:43;2.20;;;0.82;;
53881;SDS011;39794;55.782;37.452;2022-07-29T07:37:11;1.40;;;0.75;;
53881;SDS011;39794;55.782;37.452;2022-07-29T07:39:44;1.95;;;0.70;;
53881;SDS011;39794;55.782;37.452;2022-07-29T07:42:17;2.30;;;0.98;;
53881;SDS011;39794;55.782;37.452;2022-07-29T07:44:46;1.58;;;1.00;;
53881;SDS011;39794;55.782;37.452;2022-07-29T07:47:35;1.27;;;0.70;;
53881;SDS011;39794;55.782;37.452;2022-07-29T07:50:05;1.73;;;0.77;;
53881;SDS011;39794;55.782;37.452;2022-07-29T07:52:37;2.08;;;0.80;;
53881;SDS011;39794;55.782;37.452;2022-07-29T07:55:14;1.98;;;0.63;;
53881;SDS011;39794;55.782;37.452;2022-07-29T07:57:45;2.38;;;0.95;;
53881;SDS011;39794;55.782;37.452;2022-07-29T08:00:14;1.33;;;0.85;;
53881;SDS011;39794;55.782;37.452;2022-07-29T08:02:52;1.15;;;0.88;;
53881;SDS011;39794;55.782;37.452;2022-07-29T08:05:21;2.50;;;0.80;;
53881;SDS011;39794;55.782;37.452;2022-07-29T08:07:50;2.75;;;0.70;;
53881;SDS011;39794;55.782;37.452;2022-07-29T08:10:24;1.83;;;0.90;;
53881;SDS011;39794;55.782;37.452;2022-07-29T08:13:14;3.43;;;0.80;;
53881;SDS011;39794;55.782;37.452;2022-07-29T08:15:43;2.85;;;0.80;;
53881;SDS011;39794;55.782;37.452;2022-07-29T08:18:13;2.13;;;0.75;;
53881;SDS011;39794;55.782;37.452;2022-07-29T08:23:35;1.05;;;0.63;;
53881;SDS011;39794;55.782;37.452;2022-07-29T08:26:14;2.28;;;0.80;;
53881;SDS011;39794;55.782;37.452;2022-07-29T08:28:45;4.80;;;0.77;;
53881;SDS011;39794;55.782;37.452;2022-07-29T08:31:19;2.33;;;0.82;;
53881;SDS011;39794;55.782;37.452;2022-07-29T08:33:50;3.10;;;0.60;;
53881;SDS011;39794;55.782;37.452;2022-07-29T08:36:26;1.55;;;0.90;;
53881;SDS011;39794;55.782;37.452;2022-07-29T08:38:57;1.33;;;0.70;;
53881;SDS011;39794;55.782;37.452;2022-07-29T08:41:26;2.28;;;0.82;;
53881;SDS011;39794;55.782;37.452;2022-07-29T08:43:56;2.58;;;1.15;;
53881;SDS011;39794;55.782;37.452;2022-07-29T08:46:25;2.53;;;1.38;;
53881;SDS011;39794;55.782;37.452;2022-07-29T08:48:55;5.85;;;1.10;;
53881;SDS011;39794;55.782;37.452;2022-07-29T08:51:25;4.75;;;1.00;;
53881;SDS011;39794;55.782;37.452;2022-07-29T08:53:57;3.35;;;0.63;;
53881;SDS011;39794;55.782;37.452;2022-07-29T08:56:26;4.03;;;0.68;;
53881;SDS011;39794;55.782;37.452;2022-07-29T08:58:57;2.47;;;0.95;;
53881;SDS011;39794;55.782;37.452;2022-07-29T09:01:36;2.00;;;0.80;;
53881;SDS011;39794;55.782;37.452;2022-07-29T09:04:12;3.45;;;1.05;;
53881;SDS011;39794;55.782;37.452;2022-07-29T09:06:43;1.60;;;0.70;;
53881;SDS011;39794;55.782;37.452;2022-07-29T09:09:14;2.13;;;0.80;;
53881;SDS011;39794;55.782;37.452;2022-07-29T09:11:45;1.25;;;0.70;;
53881;SDS011;39794;55.782;37.452;2022-07-29T09:17:43;1.70;;;0.65;;
53881;SDS011;39794;55.782;37.452;2022-07-29T09:23:20;0.75;;;0.68;;
53881;SDS011;39794;55.782;37.452;2022-07-29T09:25:50;1.35;;;0.80;;
53881;SDS011;39794;55.782;37.452;2022-07-29T09:28:19;1.65;;;0.80;;
53881;SDS011;39794;55.782;37.452;2022-07-29T09:30:50;2.47;;;0.77;;
53881;SDS011;39794;55.782;37.452;2022-07-29T09:33:21;2.15;;;0.70;;
53881;SDS011;39794;55.782;37.452;2022-07-29T09:35:58;1.55;;;0.73;;
53881;SDS011;39794;55.782;37.452;2022-07-29T09:38:29;1.25;;;0.80;;
53881;SDS011;39794;55.782;37.452;2022-07-29T09:40:58;1.30;;;0.88;;
53881;SDS011;39794;55.782;37.452;2022-07-29T09:43:31;1.70;;;0.60;;
53881;SDS011;39794;55.782;37.452;2022-07-29T09:46:10;4.05;;;0.80;;
53881;SDS011;39794;55.782;37.452;2022-07-29T09:48:40;6.10;;;0.80;;
53881;SDS011;39794;55.782;37.452;2022-07-29T09:51:19;0.85;;;0.65;;
53881;SDS011;39794;55.782;37.452;2022-07-29T09:56:52;1.40;;;0.60;;
53881;SDS011;39794;55.782;37.452;2022-07-29T10:02:27;1.83;;;0.70;;
53881;SDS011;39794;55.782;37.452;2022-07-29T10:05:00;0.95;;;0.68;;
53881;SDS011;39794;55.782;37.452;2022-07-29T10:07:45;2.17;;;0.80;;
53881;SDS011;39794;55.782;37.452;2022-07-29T10:10:23;3.75;;;1.35;;
53881;SDS011;39794;55.782;37.452;2022-07-29T10:12:56;2.08;;;0.80;;
53881;SDS011;39794;55.782;37.452;2022-07-29T10:15:34;3.38;;;0.88;;
53881;SDS011;39794;55.782;37.452;2022-07-29T10:18:08;1.27;;;0.65;;
53881;SDS011;39794;55.782;37.452;2022-07-29T10:23:31;2.80;;;0.70;;
53881;SDS011;39794;55.782;37.452;2022-07-29T10:26:14;0.68;;;0.55;;
53881;SDS011;39794;55.782;37.452;2022-07-29T10:28:45;0.80;;;0.70;;
53881;SDS011;39794;55.782;37.452;2022-07-29T10:31:15;2.10;;;0.70;;
53881;SDS011;39794;55.782;37.452;2022-07-29T10:33:52;2.25;;;1.02;;
53881;SDS011;39794;55.782;37.452;2022-07-29T10:36:38;1.10;;;0.70;;
53881;SDS011;39794;55.782;37.452;2022-07-29T10:39:17;2.63;;;0.85;;
53881;SDS011;39794;55.782;37.452;2022-07-29T10:42:23;1.15;;;0.70;;
53881;SDS011;39794;55.782;37.452;2022-07-29T10:45:13;0.90;;;0.73;;
53881;SDS011;39794;55.782;37.452;2022-07-29T10:48:01;2.10;;;0.77;;
53881;SDS011;39794;55.782;37.452;2022-07-29T10:56:28;3.60;;;2.00;;
53881;SDS011;39794;55.782;37.452;2022-07-29T11:05:16;1.58;;;1.00;;
53881;SDS011;39794;55.782;37.452;2022-07-29T11:14:11;4.13;;;1.08;;
53881;SDS011;39794;55.782;37.452;2022-07-29T11:17:10;1.90;;;0.77;;
53881;SDS011;39794;55.782;37.452;2022-07-29T11:22:58;3.33;;;1.00;;
53881;SDS011;39794;55.782;37.452;2022-07-29T11:25:26;1.17;;;0.60;;
53881;SDS011;39794;55.782;37.452;2022-07-29T11:28:19;3.80;;;0.90;;
53881;SDS011;39794;55.782;37.452;2022-07-29T11:30:53;1.73;;;1.00;;
53881;SDS011;39794;55.782;37.452;2022-07-29T11:33:26;2.22;;;0.60;;
53881;SDS011;39794;55.782;37.452;2022-07-29T11:36:17;2.47;;;0.60;;
53881;SDS011;39794;55.782;37.452;2022-07-29T11:42:37;0.75;;;0.55;;
53881;SDS011;39794;55.782;37.452;2022-07-29T11:45:10;1.50;;;0.60;;
53881;SDS011;39794;55.782;37.452;2022-07-29T11:48:18;2.92;;;0.68;;
53881;SDS011;39794;55.782;37.452;2022-07-29T11:50:59;3.60;;;0.90;;
53881;SDS011;39794;55.782;37.452;2022-07-29T11:53:32;2.08;;;0.82;;
53881;SDS011;39794;55.782;37.452;2022-07-29T11:56:02;1.88;;;0.82;;
53881;SDS011;39794;55.782;37.452;2022-07-29T11:58:32;1.38;;;0.70;;
53881;SDS011;39794;55.782;37.452;2022-07-29T12:01:03;2.53;;;0.90;;
53881;SDS011;39794;55.782;37.452;2022-07-29T12:03:37;5.47;;;0.85;;
53881;SDS011;39794;55.782;37.452;2022-07-29T12:06:19;1.30;;;1.20;;
53881;SDS011;39794;55.782;37.452;2022-07-29T12:08:48;1.20;;;0.85;;
53881;SDS011;39794;55.782;37.452;2022-07-29T12:11:19;2.10;;;1.35;;
53881;SDS011;39794;55.782;37.452;2022-07-29T12:13:51;2.67;;;0.98;;
53881;SDS011;39794;55.782;37.452;2022-07-29T12:16:21;1.20;;;0.80;;
53881;SDS011;39794;55.782;37.452;2022-07-29T12:18:58;2.70;;;1.00;;
53881;SDS011;39794;55.782;37.452;2022-07-29T12:21:28;1.60;;;1.00;;
53881;SDS011;39794;55.782;37.452;2022-07-29T12:27:23;2.95;;;1.33;;
53881;SDS011;39794;55.782;37.452;2022-07-29T12:29:59;1.38;;;0.80;;
53881;SDS011;39794;55.782;37.452;2022-07-29T12:32:31;1.08;;;0.80;;
53881;SDS011;39794;55.782;37.452;2022-07-29T12:35:04;1.33;;;0.85;;
53881;SDS011;39794;55.782;37.452;2022-07-29T12:37:34;6.82;;;0.80;;
53881;SDS011;39794;55.782;37.452;2022-07-29T12:40:09;1.35;;;0.60;;
53881;SDS011;39794;55.782;37.452;2022-07-29T12:42:39;4.22;;;0.95;;
53881;SDS011;39794;55.782;37.452;2022-07-29T12:45:12;4.18;;;0.90;;
53881;SDS011;39794;55.782;37.452;2022-07-29T12:47:52;3.90;;;1.15;;
53881;SDS011;39794;55.782;37.452;2022-07-29T12:50:23;4.22;;;1.52;;
53881;SDS011;39794;55.782;37.452;2022-07-29T12:52:52;2.83;;;1.00;;
53881;SDS011;39794;55.782;37.452;2022-07-29T12:55:43;3.47;;;0.60;;
53881;SDS011;39794;55.782;37.452;2022-07-29T12:58:26;3.70;;;1.00;;
53881;SDS011;39794;55.782;37.452;2022-07-29T13:03:47;2.05;;;0.60;;
53881;SDS011;39794;55.782;37.452;2022-07-29T13:06:28;3.03;;;0.95;;
53881;SDS011;39794;55.782;37.452;2022-07-29T13:08:58;2.60;;;1.08;;
53881;SDS011;39794;55.782;37.452;2022-07-29T13:14:02;0.88;;;0.70;;
53881;SDS011;39794;55.782;37.452;2022-07-29T13:16:33;4.03;;;0.80;;
53881;SDS011;39794;55.782;37.452;2022-07-29T13:19:08;1.95;;;0.73;;
53881;SDS011;39794;55.782;37.452;2022-07-29T13:21:45;1.98;;;1.10;;
53881;SDS011;39794;55.782;37.452;2022-07-29T13:27:16;2.05;;;0.98;;
53881;SDS011;39794;55.782;37.452;2022-07-29T13:29:45;3.53;;;1.00;;
53881;SDS011;39794;55.782;37.452;2022-07-29T13:32:18;1.80;;;0.80;;
53881;SDS011;39794;55.782;37.452;2022-07-29T13:34:54;2.80;;;0.82;;
53881;SDS011;39794;55.782;37.452;2022-07-29T13:37:32;2.55;;;0.85;;
53881;SDS011;39794;55.782;37.452;2022-07-29T13:42:34;5.78;;;1.08;;
53881;SDS011;39794;55.782;37.452;2022-07-29T13:45:04;0.77;;;0.60;;
53881;SDS011;39794;55.782;37.452;2022-07-29T13:47:33;2.72;;;0.70;;
53881;SDS011;39794;55.782;37.452;2022-07-29T13:50:04;1.98;;;0.60;;
53881;SDS011;39794;55.782;37.452;2022-07-29T13:52:38;2.25;;;0.70;;
53881;SDS011;39794;55.782;37.452;2022-07-29T13:55:09;1.88;;;0.80;;
53881;SDS011;39794;55.782;37.452;2022-07-29T13:58:03;3.22;;;0.93;;
53881;SDS011;39794;55.782;37.452;2022-07-29T14:00:32;1.30;;;0.80;;
53881;SDS011;39794;55.782;37.452;2022-07-29T14:03:01;1.60;;;0.85;;
53881;SDS011;39794;55.782;37.452;2022-07-29T14:05:30;2.42;;;1.10;;
53881;SDS011;39794;55.782;37.452;2022-07-29T14:08:00;2.55;;;1.10;;
53881;SDS011;39794;55.782;37.452;2022-07-29T14:10:30;1.92;;;0.95;;
53881;SDS011;39794;55.782;37.452;2022-07-29T14:13:00;2.95;;;0.80;;
53881;SDS011;39794;55.782;37.452;2022-07-29T14:15:30;4.88;;;1.10;;
53881;SDS011;39794;55.782;37.452;2022-07-29T14:18:05;1.55;;;0.80;;
53881;SDS011;39794;55.782;37.452;2022-07-29T14:20:33;1.98;;;0.95;;
53881;SDS011;39794;55.782;37.452;2022-07-29T14:23:05;2.35;;;1.00;;
53881;SDS011;39794;55.782;37.452;2022-07-29T14:25:36;0.85;;;0.70;;
53881;SDS011;39794;55.782;37.452;2022-07-29T14:28:08;1.73;;;0.93;;
53881;SDS011;39794;55.782;37.452;2022-07-29T14:30:40;3.22;;;1.13;;
53881;SDS011;39794;55.782;37.452;2022-07-29T14:33:34;1.45;;;0.80;;
53881;SDS011;39794;55.782;37.452;2022-07-29T14:36:03;1.83;;;1.00;;
53881;SDS011;39794;55.782;37.452;2022-07-29T14:38:33;1.55;;;1.00;;
53881;SDS011;39794;55.782;37.452;2022-07-29T14:41:04;4.85;;;1.90;;
53881;SDS011;39794;55.782;37.452;2022-07-29T14:43:33;2.53;;;0.80;;
53881;SDS011;39794;55.782;37.452;2022-07-29T14:46:02;2.03;;;0.70;;
53881;SDS011;39794;55.782;37.452;2022-07-29T14:48:34;1.70;;;0.77;;
53881;SDS011;39794;55.782;37.452;2022-07-29T14:51:03;3.30;;;1.00;;
53881;SDS011;39794;55.782;37.452;2022-07-29T14:53:36;2.08;;;1.13;;
53881;SDS011;39794;55.782;37.452;2022-07-29T14:56:05;1.88;;;1.27;;
53881;SDS011;39794;55.782;37.452;2022-07-29T14:58:54;1.67;;;0.80;;
53881;SDS011;39794;55.782;37.452;2022-07-29T15:01:23;2.10;;;1.30;;
53881;SDS011;39794;55.782;37.452;2022-07-29T15:03:52;1.70;;;0.50;;
53881;SDS011;39794;55.782;37.452;2022-07-29T15:06:25;1.52;;;0.80;;
53881;SDS011;39794;55.782;37.452;2022-07-29T15:08:55;1.95;;;0.80;;
53881;SDS011;39794;55.782;37.452;2022-07-29T15:11:24;2.85;;;0.93;;
53881;SDS011;39794;55.782;37.452;2022-07-29T15:13:53;3.17;;;1.60;;
53881;SDS011;39794;55.782;37.452;2022-07-29T15:16:22;2.55;;;0.80;;
53881;SDS011;39794;55.782;37.452;2022-07-29T15:18:50;3.47;;;1.05;;
53881;SDS011;39794;55.782;37.452;2022-07-29T15:21:19;1.02;;;0.82;;
53881;SDS011;39794;55.782;37.452;2022-07-29T15:23:48;3.25;;;0.80;;
53881;SDS011;39794;55.782;37.452;2022-07-29T15:26:18;1.75;;;0.82;;
53881;SDS011;39794;55.782;37.452;2022-07-29T15:28:47;3.35;;;1.05;;
53881;SDS011;39794;55.782;37.452;2022-07-29T15:31:16;3.45;;;1.05;;
53881;SDS011;39794;55.782;37.452;2022-07-29T15:33:45;1.00;;;0.85;;
53881;SDS011;39794;55.782;37.452;2022-07-29T15:36:14;3.55;;;1.10;;
53881;SDS011;39794;55.782;37.452;2022-07-29T15:39:03;2.67;;;1.10;;
53881;SDS011;39794;55.782;37.452;2022-07-29T15:41:37;5.10;;;1.00;;
53881;SDS011;39794;55.782;37.452;2022-07-29T15:47:08;9.15;;;1.42;;
53881;SDS011;39794;55.782;37.452;2022-07-29T15:49:39;1.33;;;0.70;;
53881;SDS011;39794;55.782;37.452;2022-07-29T15:52:15;3.95;;;1.65;;
53881;SDS011;39794;55.782;37.452;2022-07-29T15:54:52;11.38;;;1.13;;
53881;SDS011;39794;55.782;37.452;2022-07-29T15:57:23;6.28;;;1.00;;
53881;SDS011;39794;55.782;37.452;2022-07-29T15:59:53;2.65;;;1.20;;
53881;SDS011;39794;55.782;37.452;2022-07-29T16:02:22;2.72;;;1.20;;
53881;SDS011;39794;55.782;37.452;2022-07-29T16:04:52;4.40;;;1.25;;
53881;SDS011;39794;55.782;37.452;2022-07-29T16:07:21;3.22;;;1.30;;
53881;SDS011;39794;55.782;37.452;2022-07-29T16:09:57;1.98;;;0.80;;
53881;SDS011;39794;55.782;37.452;2022-07-29T16:12:31;1.10;;;0.88;;
53881;SDS011;39794;55.782;37.452;2022-07-29T16:15:01;3.78;;;0.77;;
53881;SDS011;39794;55.782;37.452;2022-07-29T16:17:35;1.15;;;0.80;;
53881;SDS011;39794;55.782;37.452;2022-07-29T16:20:08;2.03;;;1.10;;
53881;SDS011;39794;55.782;37.452;2022-07-29T16:22:45;2.25;;;0.85;;